CCGS Sir Wilfrid Laurier — CGJK — position and weather

sailwx.info

Track history (hours):
 
Tides and Currents Weather Stations Pressure Air Temp Water Temp Dewpoint Dewpoint Depression Visibility Wind Speed Wind Dir Waves Ship Positions

Oceanographic research ship CCGS Sir Wilfrid Laurier (Canada)

Detailed information on ship capabilities available from ARCUS's ALIAS (Arctic Logistics Information and Support) project.

Last reported at 2020-Oct-19 20:27 UTC. Time now 2020-Oct-20 03:32 UTC.
Position N 48°25' W 123°23'.

Length 83 m; beam 16.2 m; draft 6 m.

Type: SAR. MMSI: 316052000.

Date/timePositionNaut miles runAvg speedWind from/ knotsBaromVisibWave heightAir tempDewpointWater temp
2020-Oct-19 20:27N 48°25' W 123°23'0 0.0
2020-Oct-19 20:00N 48°25' W 123°23'0 0.0
2020-Oct-19 14:57N 48°25' W 123°23'0 0.0
2020-Oct-19 13:45N 48°25' W 123°23'0 0.0
2020-Oct-19 12:57N 48°25' W 123°23'0 0.0
2020-Oct-19 10:57N 48°25' W 123°23'0 0.0
2020-Oct-19 08:33N 48°25' W 123°23'0 0.0
2020-Oct-19 08:27N 48°25' W 123°23'0 0.0
2020-Oct-19 06:57N 48°25' W 123°23'0 0.0
2020-Oct-19 04:30N 48°25' W 123°23'0 0.0
2020-Oct-19 03:00N 48°25' W 123°23'0 0.0
2020-Oct-19 02:30N 48°25' W 123°23'0 0.0
2020-Oct-19 00:51N 48°25' W 123°23'0 0.0
2020-Oct-18 23:57N 48°25' W 123°23'0 0.0
2020-Oct-18 22:57N 48°25' W 123°23'0 0.0
2020-Oct-18 21:01N 48°25' W 123°23'0 0.0
2020-Oct-18 16:57N 48°25' W 123°23'0 0.0
2020-Oct-18 09:57N 48°25' W 123°23'0 0.0
2020-Oct-18 09:30N 48°25' W 123°23'0 0.0
2020-Oct-18 07:30N 48°25' W 123°23'4 0.7
2020-Oct-18 01:01N 48°23' W 123°18'5 9.3
2020-Oct-18 00:31N 48°26' W 123°12'510.8
2020-Oct-18 00:01N 48°31' W 123°13'13 4.2
2020-Oct-17 21:00N 48°39' W 123°27'0 0.0
2020-Oct-17 20:29N 48°39' W 123°27'0 0.0
2020-Oct-17 19:29N 48°39' W 123°27'0 0.0
2020-Oct-17 14:59N 48°39' W 123°27'0 0.0
2020-Oct-17 14:29N 48°39' W 123°27'0 0.0
2020-Oct-17 12:59N 48°39' W 123°27'0 0.0
2020-Oct-17 08:29N 48°39' W 123°27'0 0.0
2020-Oct-17 05:29N 48°39' W 123°27'0 0.0
2020-Oct-17 04:59N 48°39' W 123°27'0 0.0
2020-Oct-17 01:59N 48°39' W 123°27'0 0.0
2020-Oct-17 00:59N 48°39' W 123°27'0 0.0
2020-Oct-16 23:59N 48°39' W 123°27'0 0.0
2020-Oct-16 23:29N 48°39' W 123°27'4 2.1
2020-Oct-16 21:29N 48°42' W 123°32'0 0.0
2020-Oct-16 20:23N 48°42' W 123°32'0 0.0
2020-Oct-16 18:47N 48°42' W 123°32'0 0.1
2020-Oct-16 17:42N 48°42' W 123°32'20 5.4
2020-Oct-16 14:01N 48°28' W 123°10'8 8.3
2020-Oct-16 13:01N 48°22' W 123°18'5 9.7
2020-Oct-16 12:30N 48°19' W 123°24'1610.5
2020-Oct-16 11:00N 48°13' W 123°46'2911.8
2020-Oct-16 08:30N 48°23' W 124°27'2210.9
2020-Oct-16 06:30N 48°29' W 124°59'510.4
2020-Oct-16 06:00N 48°29' W 125°07'5 9.2
2020-Oct-16 05:30N 48°31' W 125°13'14 9.6
2020-Oct-16 04:00N 48°41' W 125°29'1610.4
2020-Oct-16 02:30N 48°52' W 125°45'39 3.4
2020-Oct-15 15:00N 49°21' W 126°27'1 0.1
2020-Oct-15 00:23N 49°20' W 126°28'  
Track history (hours):
 
Tides and Currents Weather Stations Pressure Air Temp Water Temp Dewpoint Dewpoint Depression Visibility Wind Speed Wind Dir Waves Ship Positions

Oceanographic research ship CCGS Sir Wilfrid Laurier (Canada)

Detailed information on ship capabilities available from ARCUS's ALIAS (Arctic Logistics Information and Support) project.

Last reported at 2020-Oct-19 20:27 UTC. Time now 2020-Oct-20 03:32 UTC.
Position N 48°25' W 123°23'.

Length 83 m; beam 16.2 m; draft 6 m.

Type: SAR. MMSI: 316052000.

Date/timePositionNaut miles runAvg speedWind from/ knotsBaromVisibWave heightAir tempDewpointWater temp
2020-Oct-19 20:27N 48°25' W 123°23'0 0.0
2020-Oct-19 20:00N 48°25' W 123°23'0 0.0
2020-Oct-19 14:57N 48°25' W 123°23'0 0.0
2020-Oct-19 13:45N 48°25' W 123°23'0 0.0
2020-Oct-19 12:57N 48°25' W 123°23'0 0.0
2020-Oct-19 10:57N 48°25' W 123°23'0 0.0
2020-Oct-19 08:33N 48°25' W 123°23'0 0.0
2020-Oct-19 08:27N 48°25' W 123°23'0 0.0
2020-Oct-19 06:57N 48°25' W 123°23'0 0.0
2020-Oct-19 04:30N 48°25' W 123°23'0 0.0
2020-Oct-19 03:00N 48°25' W 123°23'0 0.0
2020-Oct-19 02:30N 48°25' W 123°23'0 0.0
2020-Oct-19 00:51N 48°25' W 123°23'0 0.0
2020-Oct-18 23:57N 48°25' W 123°23'0 0.0
2020-Oct-18 22:57N 48°25' W 123°23'0 0.0
2020-Oct-18 21:01N 48°25' W 123°23'0 0.0
2020-Oct-18 16:57N 48°25' W 123°23'0 0.0
2020-Oct-18 09:57N 48°25' W 123°23'0 0.0
2020-Oct-18 09:30N 48°25' W 123°23'0 0.0
2020-Oct-18 07:30N 48°25' W 123°23'4 0.7
2020-Oct-18 01:01N 48°23' W 123°18'5 9.3
2020-Oct-18 00:31N 48°26' W 123°12'510.8
2020-Oct-18 00:01N 48°31' W 123°13'13 4.2
2020-Oct-17 21:00N 48°39' W 123°27'0 0.0
2020-Oct-17 20:29N 48°39' W 123°27'0 0.0
2020-Oct-17 19:29N 48°39' W 123°27'0 0.0
2020-Oct-17 14:59N 48°39' W 123°27'0 0.0
2020-Oct-17 14:29N 48°39' W 123°27'0 0.0
2020-Oct-17 12:59N 48°39' W 123°27'0 0.0
2020-Oct-17 08:29N 48°39' W 123°27'0 0.0
2020-Oct-17 05:29N 48°39' W 123°27'0 0.0
2020-Oct-17 04:59N 48°39' W 123°27'0 0.0
2020-Oct-17 01:59N 48°39' W 123°27'0 0.0
2020-Oct-17 00:59N 48°39' W 123°27'0 0.0
2020-Oct-16 23:59N 48°39' W 123°27'0 0.0
2020-Oct-16 23:29N 48°39' W 123°27'4 2.1
2020-Oct-16 21:29N 48°42' W 123°32'0 0.0
2020-Oct-16 20:23N 48°42' W 123°32'0 0.0
2020-Oct-16 18:47N 48°42' W 123°32'0 0.1
2020-Oct-16 17:42N 48°42' W 123°32'20 5.4
2020-Oct-16 14:01N 48°28' W 123°10'8 8.3
2020-Oct-16 13:01N 48°22' W 123°18'5 9.7
2020-Oct-16 12:30N 48°19' W 123°24'1610.5
2020-Oct-16 11:00N 48°13' W 123°46'2911.8
2020-Oct-16 08:30N 48°23' W 124°27'2210.9
2020-Oct-16 06:30N 48°29' W 124°59'510.4
2020-Oct-16 06:00N 48°29' W 125°07'5 9.2
2020-Oct-16 05:30N 48°31' W 125°13'14 9.6
2020-Oct-16 04:00N 48°41' W 125°29'1610.4
2020-Oct-16 02:30N 48°52' W 125°45'39 3.4
2020-Oct-15 15:00N 49°21' W 126°27'1 0.1
2020-Oct-15 00:23N 49°20' W 126°28'  

Dump ship's entire track history